This is the latest recevied weather packets stored in our database for station/object WK7G. If no packets are shown the sender has not sent any weather packets the latest 10 day(s).
| Time | Temp. | Humidity | Pressure | Rain* | Wind** | Luminosity | Snow |
|---|---|---|---|---|---|---|---|
| 1777728880 | 6.11° C | 56% | 1015.1 hPa | 0 mm | - | 82 W/m² | - |
| 1777728577 | 6.11° C | 56% | 1014.9 hPa | 0 mm | - | 58 W/m² | - |
| 1777728274 | 5.56° C | 52% | 1015.2 hPa | 0 mm | - | 51 W/m² | - |
| 1777727971 | 3.33° C | 60% | 1015.2 hPa | 0 mm | - | 46 W/m² | - |
| 1777727668 | 3.89° C | 63% | 1014.8 hPa | 0 mm | - | 43 W/m² | - |
| 1777727365 | 3.89° C | 59% | 1015.1 hPa | 0 mm | - | 39 W/m² | - |
| 1777727062 | 2.78° C | 60% | 1014.9 hPa | 0 mm | - | 35 W/m² | - |
| 1777726759 | 2.22° C | 64% | 1015.2 hPa | 0 mm | - | 32 W/m² | - |
| 1777726457 | 2.22° C | 62% | 1015.1 hPa | 0 mm | - | 28 W/m² | - |
| 1777726153 | 1.11° C | 66% | 1015.2 hPa | 0 mm | - | 24 W/m² | - |
| 1777725850 | 0.56° C | 64% | 1015.2 hPa | 0 mm | - | 19 W/m² | - |
| 1777725548 | 0.56° C | 64% | 1014.9 hPa | 0 mm | - | 15 W/m² | - |
| 1777725245 | 0.56° C | 67% | 1014.8 hPa | 0 mm | - | 12 W/m² | - |
| 1777724942 | 2.22° C | 64% | 1014.8 hPa | 0 mm | - | 9 W/m² | - |
| 1777724638 | 1.67° C | 61% | 1015.2 hPa | 0 mm | - | 6 W/m² | - |
| 1777724336 | 2.22° C | 59% | 1014.9 hPa | 0 mm | - | 3 W/m² | - |
| 1777724033 | 1.67° C | 62% | 1014.8 hPa | 0 mm | - | 1 W/m² | - |
| 1777723731 | 1.11° C | 64% | 1015.1 hPa | 0 mm | - | 0 W/m² | - |
| 1777723426 | 0.56° C | 66% | 1014.9 hPa | 0 mm | - | 0 W/m² | - |
| 1777723124 | 0.56° C | 65% | 1014.9 hPa | 0 mm | - | 0 W/m² | - |
| 1777722821 | 0.56° C | 67% | 1014.9 hPa | 0 mm | - | 0 W/m² | - |
| 1777722517 | 0.56° C | 64% | 1015.2 hPa | 0 mm | - | 0 W/m² | - |
| 1777722215 | 1.11° C | 66% | 1015.1 hPa | 0 mm | - | 0 W/m² | - |
| 1777721912 | 1.11° C | 65% | 1015.2 hPa | 0 mm | - | 0 W/m² | - |
| 1777721609 | 0.56° C | 67% | 1015.1 hPa | 0 mm | - | 0 W/m² | - |
* Rain latest hour (hover to see other rain measurements)
** Current wind speed in m/s (hover to see current wind gust speed)